Time;durP1;ratioP1;P1;durP2;ratioP2;P2;SDS_P1;SDS_P2;PMS_P1;PMS_P2;Temp;Humidity;BMP_temperature;BMP_pressure;BME280_temperature;BME280_humidity;BME280_pressure;Samples;Min_cycle;Max_cycle;Signal;HPM_P1;HPM_P2
2022/03/05 00:00:43;;;;;;;12.75;7.15;;;-1.30;30.90;;;;;;5047120;28;34207;-78
2022/03/05 00:03:10;;;;;;;10.55;5.88;;;-1.30;30.80;;;;;;5029890;28;34149;-78
2022/03/05 00:05:36;;;;;;;11.38;6.55;;;-1.30;30.70;;;;;;5047222;28;34100;-78
2022/03/05 00:08:03;;;;;;;16.15;7.05;;;-1.30;30.40;;;;;;5064715;28;35267;-78
2022/03/05 00:10:35;;;;;;;13.50;7.00;;;-1.40;31.00;;;;;;5031764;28;34316;-78
2022/03/05 00:13:01;;;;;;;12.65;7.30;;;-1.40;31.00;;;;;;5046663;28;34132;-77
2022/03/05 00:15:28;;;;;;;12.82;6.70;;;-1.40;31.30;;;;;;5064797;28;34237;-78
2022/03/05 00:17:55;;;;;;;10.52;6.28;;;-1.40;31.20;;;;;;5046616;28;35934;-78
2022/03/05 00:20:22;;;;;;;13.23;7.30;;;-1.40;31.30;;;;;;5047015;28;34342;-78
2022/03/05 00:22:52;;;;;;;10.93;6.28;;;-1.40;31.20;;;;;;5046705;28;34272;-78
2022/03/05 00:25:19;;;;;;;13.43;7.28;;;-1.50;31.30;;;;;;5014748;28;34154;-77
2022/03/05 00:27:45;;;;;;;14.02;7.43;;;-1.50;31.50;;;;;;5046228;28;34266;-77
2022/03/05 00:30:11;;;;;;;13.60;6.72;;;-1.50;31.60;;;;;;5046899;28;34204;-77
2022/03/05 00:32:37;;;;;;;12.13;6.45;;;-1.60;31.80;;;;;;5030244;28;34125;-77
2022/03/05 00:35:05;;;;;;;13.48;7.22;;;-1.60;31.90;;;;;;5046130;28;34054;-77
2022/03/05 00:37:32;;;;;;;15.63;7.18;;;-1.70;31.80;;;;;;5046529;28;35622;-77
2022/03/05 00:39:58;;;;;;;13.05;7.35;;;-1.70;32.10;;;;;;5063494;28;34179;-77
2022/03/05 00:42:24;;;;;;;13.82;6.97;;;-1.70;32.40;;;;;;5064635;28;34135;-77
2022/03/05 00:44:50;;;;;;;12.77;7.22;;;-1.70;32.50;;;;;;5030037;28;34205;-77
2022/03/05 00:47:17;;;;;;;13.10;7.00;;;-1.70;32.40;;;;;;5045336;28;35500;-77
2022/03/05 00:49:43;;;;;;;13.30;7.15;;;-1.70;32.10;;;;;;5046363;28;34067;-78
2022/03/05 00:52:10;;;;;;;11.32;6.65;;;-1.70;32.00;;;;;;5029550;28;34281;-77
2022/03/05 00:54:36;;;;;;;13.10;7.07;;;-1.70;32.00;;;;;;5030072;28;34477;-77
2022/03/05 00:57:02;;;;;;;16.27;6.93;;;-1.80;32.10;;;;;;5045718;28;35491;-77
2022/03/05 00:59:29;;;;;;;12.35;6.35;;;-1.80;31.90;;;;;;5029546;28;34511;-77
2022/03/05 01:01:55;;;;;;;13.30;6.95;;;-1.80;32.00;;;;;;5045645;28;34132;-77
2022/03/05 01:04:21;;;;;;;10.90;6.68;;;-1.80;32.00;;;;;;5064176;28;34170;-77
2022/03/05 01:06:47;;;;;;;11.88;6.10;;;-1.90;32.40;;;;;;5029112;28;35717;-77
2022/03/05 01:09:14;;;;;;;13.85;7.05;;;-1.90;32.20;;;;;;5029196;28;34276;-77
2022/03/05 01:11:40;;;;;;;13.57;6.78;;;-1.90;32.50;;;;;;5063496;28;34265;-77
2022/03/05 01:14:07;;;;;;;11.63;6.60;;;-1.90;32.30;;;;;;5029691;28;34650;-77
2022/03/05 01:16:34;;;;;;;14.00;7.22;;;-1.90;32.70;;;;;;5046153;28;35666;-77
2022/03/05 01:19:01;;;;;;;14.80;7.50;;;-2.00;32.90;;;;;;5028973;28;34211;-77
2022/03/05 01:21:27;;;;;;;12.98;6.65;;;-2.00;32.60;;;;;;5045379;28;34188;-77
2022/03/05 01:23:54;;;;;;;14.73;6.97;;;-2.00;32.50;;;;;;5029505;28;34406;-77
2022/03/05 01:26:20;;;;;;;13.48;6.28;;;-2.00;32.00;;;;;;5044945;28;36652;-77
2022/03/05 01:28:46;;;;;;;13.43;6.70;;;-2.00;32.20;;;;;;5046263;28;34116;-77
2022/03/05 01:31:12;;;;;;;12.68;8.05;;;-2.00;32.40;;;;;;5029174;28;34094;-77
2022/03/05 01:33:38;;;;;;;10.45;6.38;;;-2.00;32.70;;;;;;5045999;28;34358;-77
2022/03/05 01:36:04;;;;;;;11.02;5.70;;;-2.10;32.00;;;;;;5045297;28;35757;-77
2022/03/05 01:38:30;;;;;;;11.02;6.55;;;-2.10;31.80;;;;;;5028473;28;34410;-77
2022/03/05 01:40:56;;;;;;;13.48;6.90;;;-2.10;32.20;;;;;;5045303;28;34249;-78
2022/03/05 01:43:22;;;;;;;13.15;6.65;;;-2.20;32.40;;;;;;5029106;28;34241;-77
2022/03/05 01:45:48;;;;;;;10.18;5.75;;;-2.20;32.60;;;;;;5063678;28;34470;-77
2022/03/05 01:48:14;;;;;;;14.35;6.90;;;-2.20;32.60;;;;;;5045693;28;34112;-77
2022/03/05 01:50:41;;;;;;;11.82;6.93;;;-2.20;32.50;;;;;;5045620;28;34046;-77
2022/03/05 01:53:06;;;;;;;10.38;5.57;;;-2.30;32.50;;;;;;5063362;28;34132;-77
2022/03/05 01:55:33;;;;;;;13.50;6.90;;;-2.30;32.40;;;;;;5045362;28;35749;-78
2022/03/05 01:57:59;;;;;;;15.15;6.68;;;-2.30;32.60;;;;;;5028815;28;33795;-78
2022/03/05 02:00:25;;;;;;;10.65;6.57;;;-2.30;32.70;;;;;;5045301;28;34228;-78
2022/03/05 02:02:52;;;;;;;13.40;6.88;;;-2.40;32.90;;;;;;5063611;28;34117;-77
2022/03/05 02:05:18;;;;;;;11.70;5.75;;;-2.40;33.00;;;;;;5029046;28;36080;-78
2022/03/05 02:07:45;;;;;;;10.90;6.32;;;-2.40;33.40;;;;;;5045428;28;34061;-77
2022/03/05 02:10:11;;;;;;;16.63;6.05;;;-2.40;33.50;;;;;;5063758;28;34128;-78
2022/03/05 02:12:39;;;;;;;12.32;6.38;;;-2.50;33.50;;;;;;5028773;28;34442;-78
2022/03/05 02:15:07;;;;;;;12.75;6.28;;;-2.40;33.40;;;;;;5045449;28;35818;-78
2022/03/05 02:17:33;;;;;;;11.93;5.93;;;-2.50;33.60;;;;;;5029420;28;34097;-78
2022/03/05 02:19:59;;;;;;;10.80;5.13;;;-2.40;33.40;;;;;;5045302;28;34038;-78
2022/03/05 02:22:25;;;;;;;11.68;5.47;;;-2.40;33.30;;;;;;5044990;28;34528;-78
2022/03/05 02:24:55;;;;;;;15.52;6.40;;;-2.40;33.20;;;;;;5045692;28;35955;-77
2022/03/05 02:27:23;;;;;;;13.82;7.10;;;-2.50;33.50;;;;;;5045211;28;34242;-78
2022/03/05 02:29:50;;;;;;;10.35;6.40;;;-2.50;33.40;;;;;;5029302;28;34203;-78
2022/03/05 02:32:16;;;;;;;10.98;6.22;;;-2.50;33.30;;;;;;5046312;28;34437;-78
2022/03/05 02:34:43;;;;;;;11.18;6.10;;;-2.50;33.00;;;;;;5028499;28;35895;-78
2022/03/05 02:37:11;;;;;;;13.23;5.78;;;-2.50;33.00;;;;;;5045237;28;34388;-78
2022/03/05 02:39:37;;;;;;;12.65;6.75;;;-2.60;32.90;;;;;;5063474;28;34224;-78
2022/03/05 02:42:04;;;;;;;12.88;6.38;;;-2.60;33.40;;;;;;5044862;28;34104;-78
2022/03/05 02:44:29;;;;;;;11.88;6.78;;;-2.60;33.40;;;;;;5028616;28;35893;-78
2022/03/05 02:46:58;;;;;;;13.80;6.80;;;-2.60;33.40;;;;;;5045655;28;34145;-78
2022/03/05 02:49:24;;;;;;;12.45;6.70;;;-2.70;33.20;;;;;;5045621;28;34311;-77
2022/03/05 02:51:51;;;;;;;12.25;5.93;;;-2.70;33.10;;;;;;5028592;28;34187;-78
2022/03/05 02:54:18;;;;;;;15.40;6.78;;;-2.60;33.30;;;;;;5045077;28;36385;-78
2022/03/05 02:56:44;;;;;;;11.38;6.38;;;-2.70;33.30;;;;;;5046025;28;34054;-78
2022/03/05 02:59:10;;;;;;;12.35;6.32;;;-2.70;33.60;;;;;;5045089;28;34239;-78
2022/03/05 03:01:36;;;;;;;11.38;6.03;;;-2.80;33.20;;;;;;5045411;28;34443;-78
2022/03/05 03:04:02;;;;;;;12.35;6.07;;;-2.80;33.00;;;;;;5045188;28;34345;-78
2022/03/05 03:06:28;;;;;;;15.82;7.32;;;-2.80;32.70;;;;;;5045669;28;34496;-78
2022/03/05 03:08:54;;;;;;;13.80;5.90;;;-2.90;32.70;;;;;;5045311;28;34341;-78
2022/03/05 03:11:20;;;;;;;9.45;5.30;;;-2.90;33.10;;;;;;5048512;28;34537;-77
2022/03/05 03:13:47;;;;;;;14.05;5.88;;;-2.90;33.20;;;;;;5032274;28;36249;-78
2022/03/05 03:16:13;;;;;;;10.52;5.97;;;-3.00;33.50;;;;;;5048246;28;34262;-78
2022/03/05 03:18:39;;;;;;;9.77;5.80;;;-2.90;33.80;;;;;;5032327;28;34358;-78
2022/03/05 03:21:05;;;;;;;10.88;5.60;;;-3.00;33.20;;;;;;5066462;28;34104;-78
2022/03/05 03:23:31;;;;;;;14.07;5.63;;;-3.00;33.00;;;;;;5048742;28;34723;-78
2022/03/05 03:25:57;;;;;;;14.20;6.93;;;-3.00;33.40;;;;;;5048827;28;33974;-78
2022/03/05 03:28:23;;;;;;;13.50;6.35;;;-3.00;33.60;;;;;;5066568;28;34079;-78
2022/03/05 03:30:49;;;;;;;13.32;5.85;;;-3.00;33.60;;;;;;5048871;28;34472;-78
2022/03/05 03:33:15;;;;;;;12.73;6.43;;;-3.10;33.80;;;;;;5047906;28;36496;-78
2022/03/05 03:35:41;;;;;;;14.40;6.65;;;-3.10;33.80;;;;;;5048983;28;34400;-78
2022/03/05 03:38:07;;;;;;;11.70;7.15;;;-3.10;33.50;;;;;;5048801;28;34291;-78
2022/03/05 03:40:33;;;;;;;12.50;6.78;;;-3.10;34.00;;;;;;5048851;28;34045;-78
2022/03/05 03:42:59;;;;;;;13.98;5.85;;;-3.10;34.00;;;;;;5048184;28;35996;-78
2022/03/05 03:45:25;;;;;;;13.95;6.72;;;-3.10;33.50;;;;;;5065956;28;34115;-78
2022/03/05 03:47:52;;;;;;;14.77;6.95;;;-3.10;33.70;;;;;;5032433;28;34358;-78
2022/03/05 03:50:20;;;;;;;14.82;6.93;;;-3.10;34.00;;;;;;5048478;28;34171;-78
2022/03/05 03:52:47;;;;;;;11.18;5.40;;;-3.20;33.90;;;;;;5048773;28;34185;-78
2022/03/05 03:55:16;;;;;;;13.95;7.65;;;-3.20;34.10;;;;;;5048821;28;34258;-78
2022/03/05 03:57:42;;;;;;;12.30;6.15;;;-3.20;33.70;;;;;;5033117;28;34205;-78
2022/03/05 04:00:11;;;;;;;11.82;6.38;;;-3.20;33.90;;;;;;5066433;28;34127;-78
2022/03/05 04:02:37;;;;;;;12.93;6.75;;;-3.20;33.60;;;;;;5048436;28;35791;-78
2022/03/05 04:05:04;;;;;;;14.20;5.75;;;-3.20;33.90;;;;;;5032057;28;34218;-78
2022/03/05 04:10:11;;;;;;;11.95;6.00;;;-3.20;34.00;;;;;;5066271;28;34124;-78
2022/03/05 04:12:37;;;;;;;11.30;6.30;;;-3.20;33.80;;;;;;5031590;28;36023;-78
2022/03/05 04:15:04;;;;;;;11.82;5.55;;;-3.30;33.50;;;;;;5048472;28;34124;-78
2022/03/05 04:17:30;;;;;;;12.00;6.30;;;-3.30;33.80;;;;;;5014881;28;34089;-78
2022/03/05 04:19:56;;;;;;;12.40;6.45;;;-3.30;33.60;;;;;;5047619;28;34158;-78
2022/03/05 04:22:22;;;;;;;9.65;5.55;;;-3.30;34.10;;;;;;5047130;28;36583;-78
2022/03/05 04:24:48;;;;;;;11.45;5.85;;;-3.40;34.00;;;;;;5032000;28;34379;-78
2022/03/05 04:27:14;;;;;;;10.63;5.95;;;-3.40;34.10;;;;;;5031440;28;34459;-78
2022/03/05 04:29:40;;;;;;;14.68;6.47;;;-3.40;34.10;;;;;;5048164;28;34274;-78
2022/03/05 04:32:07;;;;;;;16.80;7.60;;;-3.40;34.30;;;;;;5046953;28;35896;-78
2022/03/05 04:34:33;;;;;;;12.73;6.47;;;-3.40;34.30;;;;;;5015536;28;34320;-78
2022/03/05 04:36:59;;;;;;;13.13;6.22;;;-3.40;34.10;;;;;;5048049;28;34202;-77
2022/03/05 04:39:25;;;;;;;11.90;6.57;;;-3.40;34.00;;;;;;5048024;28;34049;-78
2022/03/05 04:41:51;;;;;;;14.75;6.85;;;-3.50;33.70;;;;;;5031104;28;35589;-78
2022/03/05 04:44:17;;;;;;;9.63;5.60;;;-3.50;33.30;;;;;;5047986;28;34331;-78
2022/03/05 04:46:43;;;;;;;13.60;7.05;;;-3.50;33.90;;;;;;5047790;28;34771;-78
2022/03/05 04:49:09;;;;;;;13.13;5.93;;;-3.50;34.00;;;;;;5047672;28;34253;-78
2022/03/05 04:51:36;;;;;;;12.10;6.18;;;-3.60;34.10;;;;;;5047529;28;35624;-78
2022/03/05 04:54:02;;;;;;;12.23;6.13;;;-3.60;34.20;;;;;;5047820;28;34276;-78
2022/03/05 04:56:28;;;;;;;15.35;6.25;;;-3.50;34.20;;;;;;5030849;28;34126;-78
2022/03/05 04:58:54;;;;;;;16.80;6.93;;;-3.60;34.00;;;;;;5047490;28;34400;-78
2022/03/05 05:01:20;;;;;;;12.18;6.57;;;-3.60;34.00;;;;;;5047089;28;34053;-78
2022/03/05 05:03:47;;;;;;;15.48;7.20;;;-3.60;34.30;;;;;;5065659;28;34642;-78
2022/03/05 05:06:13;;;;;;;10.18;5.45;;;-3.60;34.50;;;;;;5046939;28;34503;-78
2022/03/05 05:08:39;;;;;;;15.88;6.22;;;-3.60;34.00;;;;;;5047515;28;34125;-78
2022/03/05 05:11:05;;;;;;;14.45;6.35;;;-3.60;34.00;;;;;;5046345;28;36617;-77
2022/03/05 05:13:31;;;;;;;10.93;4.93;;;-3.60;34.60;;;;;;5064563;28;34182;-78
2022/03/05 05:15:58;;;;;;;13.50;6.20;;;-3.70;34.60;;;;;;5030613;28;34299;-78
2022/03/05 05:18:24;;;;;;;11.45;5.35;;;-3.70;34.10;;;;;;5064419;28;34083;-78
2022/03/05 05:20:50;;;;;;;9.50;6.00;;;-3.70;34.10;;;;;;5047076;28;35675;-78
2022/03/05 05:23:16;;;;;;;11.88;5.82;;;-3.70;34.00;;;;;;5046108;28;34128;-78
2022/03/05 05:25:42;;;;;;;10.15;5.90;;;-3.70;34.00;;;;;;5047102;28;34085;-78
2022/03/05 05:28:09;;;;;;;10.30;4.85;;;-3.80;34.00;;;;;;5030743;28;34593;-78
2022/03/05 05:30:35;;;;;;;9.30;5.70;;;-3.80;33.90;;;;;;5045847;28;35552;-78
2022/03/05 05:33:01;;;;;;;13.52;6.32;;;-3.80;34.60;;;;;;5029168;28;34434;-78
2022/03/05 05:35:28;;;;;;;13.15;6.82;;;-3.80;35.50;;;;;;5046412;28;34422;-78
2022/03/05 05:37:54;;;;;;;13.30;6.70;;;-3.80;34.40;;;;;;5046467;28;34201;-78
2022/03/05 05:40:21;;;;;;;16.48;6.30;;;-3.80;34.10;;;;;;5045746;28;36719;-78
2022/03/05 05:42:47;;;;;;;9.50;5.77;;;-3.80;34.40;;;;;;5046602;28;34170;-78
2022/03/05 05:45:13;;;;;;;12.15;5.68;;;-3.90;34.50;;;;;;5046051;28;34531;-78
2022/03/05 05:47:39;;;;;;;13.90;6.50;;;-3.90;34.80;;;;;;5046794;28;34212;-79
2022/03/05 05:50:21;;;;;;;9.60;5.27;;;-3.90;34.80;;;;;;5045912;28;36783;-78
2022/03/05 05:52:47;;;;;;;13.10;6.28;;;-3.90;34.60;;;;;;5046735;28;34335;-78
2022/03/05 05:55:13;;;;;;;12.98;6.03;;;-3.90;34.70;;;;;;5045672;28;34458;-78
2022/03/05 05:57:39;;;;;;;17.17;7.90;;;-3.90;34.60;;;;;;5046818;28;34185;-78
2022/03/05 06:00:06;;;;;;;10.45;6.03;;;-3.90;34.70;;;;;;5045816;28;35684;-78
2022/03/05 06:02:32;;;;;;;9.30;5.25;;;-3.90;34.70;;;;;;5065176;28;34262;-78
2022/03/05 06:04:57;;;;;;;13.20;6.53;;;-3.90;34.80;;;;;;5030070;28;34212;-78
2022/03/05 06:07:23;;;;;;;14.13;7.50;;;-3.90;34.70;;;;;;5046565;28;34417;-79
2022/03/05 06:09:49;;;;;;;14.90;6.25;;;-3.90;34.60;;;;;;5045722;28;34279;-78
2022/03/05 06:12:15;;;;;;;14.68;6.15;;;-3.90;34.30;;;;;;5045524;28;34101;-78
2022/03/05 06:14:42;;;;;;;10.65;6.13;;;-3.90;34.10;;;;;;5045975;28;34014;-78
2022/03/05 06:17:08;;;;;;;16.30;6.35;;;-3.90;33.50;;;;;;5029558;28;34092;-78
2022/03/05 06:19:34;;;;;;;12.02;5.32;;;-3.90;33.60;;;;;;5046292;28;36065;-78
2022/03/05 06:22:00;;;;;;;11.27;5.80;;;-4.00;34.00;;;;;;5046096;28;34185;-78
2022/03/05 06:24:26;;;;;;;12.70;6.50;;;-4.00;33.90;;;;;;5013030;28;34179;-78
2022/03/05 06:26:52;;;;;;;12.00;5.63;;;-4.00;34.20;;;;;;5012934;28;34227;-78
2022/03/05 06:29:18;;;;;;;10.93;6.13;;;-4.00;34.30;;;;;;5063323;28;35195;-78
2022/03/05 06:31:44;;;;;;;15.23;5.60;;;-4.00;34.50;;;;;;5012706;28;34111;-78
2022/03/05 06:34:10;;;;;;;9.18;5.07;;;-4.00;34.30;;;;;;5063302;28;34216;-78
2022/03/05 06:36:36;;;;;;;13.13;7.53;;;-3.90;34.90;;;;;;5045517;28;34311;-78
2022/03/05 06:39:02;;;;;;;12.60;6.23;;;-3.90;35.10;;;;;;5045506;28;35494;-78
2022/03/05 06:41:28;;;;;;;13.63;6.47;;;-3.90;34.80;;;;;;5045841;28;34123;-77
2022/03/05 06:43:54;;;;;;;16.00;7.30;;;-3.80;34.80;;;;;;5045737;28;34233;-78
2022/03/05 06:46:20;;;;;;;10.40;6.07;;;-3.70;35.00;;;;;;5048920;28;34623;-79
2022/03/05 06:48:46;;;;;;;15.52;7.15;;;-3.60;34.60;;;;;;5049189;28;35594;-79
2022/03/05 06:51:13;;;;;;;13.77;6.32;;;-3.50;34.50;;;;;;5033487;28;34078;-78
2022/03/05 06:53:39;;;;;;;18.83;7.72;;;-3.40;34.70;;;;;;5049631;28;34038;-78
2022/03/05 06:56:05;;;;;;;10.25;6.78;;;-3.20;34.40;;;;;;5032295;28;33996;-78
2022/03/05 06:58:31;;;;;;;14.07;6.93;;;-3.00;34.50;;;;;;5015705;28;35627;-78
2022/03/05 07:00:57;;;;;;;16.27;7.80;;;-2.80;34.50;;;;;;5048822;28;34299;-78
2022/03/05 07:03:23;;;;;;;13.18;7.18;;;-2.60;34.10;;;;;;5048919;28;34121;-78
2022/03/05 07:05:49;;;;;;;15.80;7.60;;;-2.50;33.70;;;;;;5032730;28;34389;-78
2022/03/05 07:08:15;;;;;;;17.63;8.20;;;-2.20;33.50;;;;;;5048585;28;36659;-78
2022/03/05 07:10:41;;;;;;;16.08;8.70;;;-2.00;33.30;;;;;;5048316;28;34165;-78
2022/03/05 07:13:06;;;;;;;19.05;9.50;;;-1.90;32.80;;;;;;5049188;28;34157;-78
2022/03/05 07:15:32;;;;;;;17.10;8.55;;;-1.70;32.60;;;;;;5048736;28;34152;-78
2022/03/05 07:17:58;;;;;;;19.30;8.23;;;-1.50;32.50;;;;;;5032181;28;35987;-79
2022/03/05 07:20:24;;;;;;;15.55;8.40;;;-1.30;32.20;;;;;;5049330;28;34206;-79
2022/03/05 07:22:50;;;;;;;19.05;9.45;;;-1.20;32.00;;;;;;5032556;28;34196;-79
2022/03/05 07:25:16;;;;;;;18.58;9.73;;;-1.10;32.00;;;;;;5048897;28;34378;-79
2022/03/05 07:27:42;;;;;;;20.67;9.02;;;-1.00;31.90;;;;;;5049375;28;35767;-79
2022/03/05 07:30:09;;;;;;;19.98;8.65;;;-0.80;31.70;;;;;;5049310;28;34017;-79
2022/03/05 07:32:35;;;;;;;19.85;9.07;;;-0.70;31.80;;;;;;5049318;28;34210;-79
2022/03/05 07:35:03;;;;;;;19.20;9.18;;;-0.50;31.80;;;;;;5049370;28;34425;-79
2022/03/05 07:37:29;;;;;;;16.85;9.27;;;-0.30;31.50;;;;;;5049595;28;36763;-79
2022/03/05 07:39:55;;;;;;;22.85;10.75;;;-0.10;31.10;;;;;;5033686;28;34336;-79
2022/03/05 07:42:21;;;;;;;21.23;10.88;;;0.20;30.90;;;;;;5049405;28;34407;-79
2022/03/05 07:44:47;;;;;;;20.65;10.07;;;0.30;31.00;;;;;;5051171;28;34088;-79
2022/03/05 07:47:13;;;;;;;17.80;10.32;;;0.40;30.40;;;;;;5050124;28;35630;-78
2022/03/05 07:49:39;;;;;;;16.13;9.48;;;0.60;30.60;;;;;;5049860;28;34198;-79
2022/03/05 07:52:05;;;;;;;21.42;9.98;;;0.80;30.40;;;;;;5067822;28;34235;-79
2022/03/05 07:54:31;;;;;;;18.98;9.95;;;1.00;30.00;;;;;;5049439;28;34112;-79
2022/03/05 07:56:57;;;;;;;20.83;10.95;;;1.10;29.80;;;;;;5049339;28;35435;-79
2022/03/05 07:59:23;;;;;;;21.30;10.50;;;1.30;29.60;;;;;;5049216;28;34420;-79
2022/03/05 08:01:49;;;;;;;21.52;11.05;;;1.50;29.20;;;;;;5049408;28;34142;-78
2022/03/05 08:04:16;;;;;;;21.83;10.52;;;1.70;29.00;;;;;;5048358;28;34314;-78
2022/03/05 08:06:42;;;;;;;22.75;10.50;;;1.90;28.80;;;;;;5032038;28;36658;-78
2022/03/05 08:09:07;;;;;;;18.77;9.93;;;1.90;28.60;;;;;;5049205;28;34100;-78
2022/03/05 08:11:33;;;;;;;18.95;9.02;;;2.00;28.50;;;;;;5049217;28;34206;-78
2022/03/05 08:13:59;;;;;;;20.98;10.15;;;2.10;28.90;;;;;;5049297;28;34140;-78
2022/03/05 08:16:25;;;;;;;20.25;11.07;;;2.20;29.20;;;;;;5048086;28;34156;-78
2022/03/05 08:18:51;;;;;;;18.90;9.88;;;2.30;29.30;;;;;;5065519;28;34278;-79
2022/03/05 08:21:17;;;;;;;17.40;9.35;;;2.50;29.30;;;;;;5033056;28;34251;-78
2022/03/05 08:23:43;;;;;;;20.27;10.48;;;2.60;29.10;;;;;;5027970;28;34060;-78
2022/03/05 08:26:13;;;;;;;19.15;10.40;;;2.80;29.50;;;;;;5027098;28;35898;-78
2022/03/05 08:28:43;;;;;;;22.92;10.30;;;2.90;29.10;;;;;;5045056;28;34224;-78
2022/03/05 08:31:09;;;;;;;19.25;11.10;;;3.00;28.90;;;;;;5012134;28;34232;-78
2022/03/05 08:33:35;;;;;;;32.17;17.10;;;3.10;28.90;;;;;;5028088;28;34233;-78
2022/03/05 08:36:01;;;;;;;31.05;17.13;;;3.20;29.10;;;;;;4995990;28;36521;-78
2022/03/05 08:38:31;;;;;;;66.55;30.77;;;3.40;28.80;;;;;;5028493;28;34124;-77
2022/03/05 08:40:58;;;;;;;34.22;17.75;;;3.50;28.80;;;;;;5027293;28;34309;-78
2022/03/05 08:43:24;;;;;;;27.25;13.02;;;3.60;28.80;;;;;;5027258;28;34272;-78
2022/03/05 08:45:50;;;;;;;19.15;10.52;;;3.80;29.10;;;;;;5043929;28;34420;-77
2022/03/05 08:48:16;;;;;;;20.42;10.40;;;4.00;29.00;;;;;;5027145;28;34235;-77
2022/03/05 08:50:42;;;;;;;18.58;10.10;;;4.30;29.10;;;;;;5027783;28;34151;-78
2022/03/05 08:53:08;;;;;;;22.50;10.95;;;4.40;29.30;;;;;;5010671;28;34329;-77
2022/03/05 08:55:34;;;;;;;19.05;9.55;;;4.60;28.40;;;;;;5034226;28;35537;-78
2022/03/05 08:58:01;;;;;;;22.65;9.77;;;4.80;27.90;;;;;;5026503;28;34207;-77
2022/03/05 09:00:27;;;;;;;21.92;9.77;;;5.00;27.10;;;;;;5046699;28;34092;-77
2022/03/05 09:02:53;;;;;;;21.90;10.98;;;5.20;27.00;;;;;;5065128;28;34198;-77
2022/03/05 09:05:19;;;;;;;19.27;10.35;;;5.40;27.00;;;;;;5030644;28;35514;-77
2022/03/05 09:07:46;;;;;;;20.40;10.55;;;5.60;26.90;;;;;;5064258;28;34435;-77
2022/03/05 09:10:13;;;;;;;21.23;10.05;;;5.80;26.50;;;;;;5046765;28;34119;-77
2022/03/05 09:12:40;;;;;;;21.23;10.13;;;6.00;26.20;;;;;;5047129;28;34296;-78
2022/03/05 09:15:07;;;;;;;21.38;9.52;;;6.20;26.20;;;;;;5046502;28;35719;-77
2022/03/05 09:17:33;;;;;;;18.45;10.25;;;6.30;25.90;;;;;;5046953;28;34087;-77
2022/03/05 09:19:59;;;;;;;21.85;11.18;;;6.50;25.90;;;;;;5046600;28;34188;-76
2022/03/05 09:22:25;;;;;;;21.67;10.85;;;6.70;26.00;;;;;;5064980;28;34101;-76
2022/03/05 09:24:51;;;;;;;23.20;11.10;;;6.90;25.90;;;;;;5046482;28;36009;-77
2022/03/05 09:27:17;;;;;;;20.75;10.02;;;6.90;25.30;;;;;;5046303;28;34070;-77
2022/03/05 09:29:43;;;;;;;20.00;10.38;;;7.00;25.10;;;;;;5046987;28;34268;-77
2022/03/05 09:32:09;;;;;;;20.00;10.65;;;7.10;25.20;;;;;;5046755;28;34495;-77
2022/03/05 09:34:35;;;;;;;23.73;10.82;;;7.20;24.80;;;;;;5027215;28;35679;-77
2022/03/05 09:37:02;;;;;;;16.35;9.63;;;7.50;24.90;;;;;;5026323;28;34213;-77
2022/03/05 09:39:28;;;;;;;17.67;9.65;;;7.70;25.00;;;;;;5027376;28;34199;-77
2022/03/05 09:41:54;;;;;;;22.13;11.20;;;7.90;24.60;;;;;;5027590;28;34642;-77
2022/03/05 09:44:20;;;;;;;21.90;10.55;;;8.20;24.70;;;;;;5010337;28;36938;-77
2022/03/05 09:46:47;;;;;;;18.98;10.57;;;8.40;25.40;;;;;;5044227;28;34060;-77
2022/03/05 09:49:14;;;;;;;18.48;9.13;;;8.60;23.90;;;;;;5040793;28;34369;-77
2022/03/05 09:51:40;;;;;;;19.58;10.13;;;8.90;23.90;;;;;;5039784;28;34384;-77
2022/03/05 09:54:06;;;;;;;19.92;10.43;;;9.00;23.40;;;;;;5063193;28;34491;-77
2022/03/05 09:56:32;;;;;;;19.73;10.27;;;9.20;23.00;;;;;;5045945;28;34134;-77
2022/03/05 09:58:58;;;;;;;17.75;10.00;;;9.30;23.30;;;;;;5046659;28;34099;-77
2022/03/05 10:01:25;;;;;;;18.45;9.80;;;9.40;22.60;;;;;;5046363;28;34547;-77
2022/03/05 10:03:53;;;;;;;20.25;10.13;;;9.60;22.50;;;;;;5046080;28;35501;-77
2022/03/05 10:06:23;;;;;;;21.92;9.90;;;9.70;22.10;;;;;;5046283;28;34160;-77
2022/03/05 10:08:55;;;;;;;19.33;10.00;;;9.90;20.90;;;;;;5046370;28;34166;-76
2022/03/05 10:11:22;;;;;;;19.50;9.60;;;10.00;21.70;;;;;;5038093;28;34221;-77
2022/03/05 10:13:48;;;;;;;16.38;9.27;;;10.10;21.50;;;;;;5043891;28;34504;-76
2022/03/05 10:16:25;;;;;;;21.85;9.82;;;10.30;21.50;;;;;;5043878;28;34274;-77
2022/03/05 10:18:53;;;;;;;16.77;9.18;;;10.50;18.70;;;;;;5027387;28;33989;-77
2022/03/05 10:21:27;;;;;;;21.20;10.48;;;10.60;21.00;;;;;;5029860;28;34142;-77
2022/03/05 10:24:08;;;;;;;18.10;9.75;;;10.80;19.00;;;;;;5029815;28;35185;-77
2022/03/05 10:26:51;;;;;;;19.38;10.18;;;10.90;18.70;;;;;;5029807;28;34153;-77
2022/03/05 10:29:22;;;;;;;17.05;9.63;;;11.00;17.10;;;;;;5012611;28;34372;-77
2022/03/05 10:31:58;;;;;;;20.50;10.40;;;11.20;20.30;;;;;;5029601;28;34063;-77
2022/03/05 10:34:24;;;;;;;19.25;9.73;;;11.30;16.90;;;;;;5029345;28;36404;-76
2022/03/05 10:37:06;;;;;;;18.23;9.63;;;11.50;19.90;;;;;;5029881;28;34359;-77
2022/03/05 10:39:31;;;;;;;20.65;9.65;;;11.70;15.90;;;;;;5029823;28;34222;-77
2022/03/05 10:41:59;;;;;;;19.17;10.00;;;11.80;19.60;;;;;;5028939;28;34007;-77
2022/03/05 10:44:25;;;;;;;20.40;10.18;;;11.90;18.50;;;;;;5029559;28;35828;-77
2022/03/05 10:46:58;;;;;;;16.55;9.20;;;12.00;19.10;;;;;;5029636;28;34240;-77
2022/03/05 10:49:31;;;;;;;19.02;9.80;;;12.10;16.90;;;;;;5030021;28;34187;-77
2022/03/05 10:52:10;;;;;;;17.10;9.63;;;12.20;17.50;;;;;;5029391;28;34505;-76
2022/03/05 10:54:39;;;;;;;17.27;9.60;;;12.10;14.40;;;;;;5029124;28;35539;-77
2022/03/05 10:57:22;;;;;;;15.65;9.40;;;12.10;17.80;;;;;;5012804;28;34028;-76
2022/03/05 10:59:52;;;;;;;16.77;9.00;;;12.00;14.80;;;;;;5047368;28;34063;-77
2022/03/05 11:02:20;;;;;;;23.35;9.65;;;11.90;17.60;;;;;;5029396;28;34942;-77
2022/03/05 11:04:47;;;;;;;17.52;9.43;;;12.10;17.80;;;;;;5012732;28;35612;-77
2022/03/05 11:07:17;;;;;;;12.85;8.07;;;12.10;17.60;;;;;;5029365;28;34225;-77
2022/03/05 11:09:43;;;;;;;15.20;8.50;;;12.10;17.60;;;;;;4997304;28;34179;-76
2022/03/05 11:12:16;;;;;;;17.15;9.32;;;12.30;17.60;;;;;;5029178;28;34064;-77
2022/03/05 11:14:47;;;;;;;17.10;9.38;;;12.30;14.50;;;;;;5028909;28;35588;-77
2022/03/05 11:17:14;;;;;;;16.80;8.77;;;12.30;15.60;;;;;;5011708;28;34139;-77
2022/03/05 11:19:40;;;;;;;16.45;8.63;;;12.40;17.00;;;;;;5046171;28;34212;-77
2022/03/05 11:22:08;;;;;;;13.75;9.18;;;12.30;16.60;;;;;;5046344;28;34219;-76
2022/03/05 11:24:38;;;;;;;17.20;8.27;;;12.30;16.10;;;;;;5046122;28;35167;-77
2022/03/05 11:27:04;;;;;;;15.35;8.73;;;12.30;16.00;;;;;;5029097;28;34121;-77
2022/03/05 11:29:50;;;;;;;16.45;9.05;;;12.30;16.30;;;;;;5012573;28;34403;-77
2022/03/05 11:32:16;;;;;;;15.02;8.70;;;12.30;16.30;;;;;;5014687;28;34075;-77
2022/03/05 11:34:44;;;;;;;13.00;7.53;;;12.30;15.90;;;;;;5027936;28;35943;-76
2022/03/05 11:37:16;;;;;;;17.58;8.40;;;12.40;15.40;;;;;;5027804;28;34188;-77
2022/03/05 11:39:42;;;;;;;13.57;7.93;;;12.60;13.30;;;;;;5029116;28;34142;-76
2022/03/05 11:42:09;;;;;;;16.42;8.27;;;12.60;15.70;;;;;;5028750;28;33987;-77
2022/03/05 11:44:43;;;;;;;15.57;7.82;;;12.70;15.50;;;;;;5046283;28;35060;-77
2022/03/05 11:47:26;;;;;;;13.80;8.13;;;12.90;13.40;;;;;;5011983;28;34040;-77
2022/03/05 11:50:05;;;;;;;12.95;7.25;;;13.00;11.30;;;;;;5028359;28;34161;-77
2022/03/05 11:53:01;;;;;;;13.43;7.70;;;13.20;11.00;;;;;;5027869;28;34467;-77
2022/03/05 11:55:27;;;;;;;11.88;7.47;;;13.20;10.00;;;;;;5028431;28;35935;-77
2022/03/05 11:58:30;;;;;;;14.85;8.02;;;13.20;14.70;;;;;;5046346;28;34114;-77
2022/03/05 12:00:57;;;;;;;12.20;7.93;;;13.20;7.50;;;;;;5017084;28;34300;-77
2022/03/05 12:03:38;;;;;;;15.10;7.38;;;13.10;14.00;;;;;;5027737;28;34531;-76
2022/03/05 12:06:05;;;;;;;10.30;6.82;;;13.10;8.70;;;;;;5027798;28;36129;-75
2022/03/05 12:08:49;;;;;;;15.57;7.10;;;13.10;13.70;;;;;;5028192;28;34523;-77
2022/03/05 12:11:18;;;;;;;11.23;7.00;;;13.20;8.10;;;;;;5053134;28;34456;-77
2022/03/05 12:13:58;;;;;;;13.00;6.75;;;13.30;12.80;;;;;;5047599;28;34238;-77
2022/03/05 12:16:27;;;;;;;11.75;6.68;;;13.30;10.90;;;;;;5047592;28;35606;-77
2022/03/05 12:18:56;;;;;;;12.93;6.90;;;13.30;11.70;;;;;;5047878;28;34154;-77
2022/03/05 12:21:32;;;;;;;13.07;6.75;;;13.30;12.20;;;;;;5064522;28;34167;-77
2022/03/05 12:24:00;;;;;;;12.05;7.10;;;13.30;8.80;;;;;;5047499;28;34405;-76
2022/03/05 12:26:35;;;;;;;12.68;7.25;;;13.40;12.00;;;;;;5031404;28;35637;-77
2022/03/05 12:29:04;;;;;;;11.15;6.43;;;13.40;9.50;;;;;;5064633;28;34332;-77
2022/03/05 12:31:30;;;;;;;11.90;7.25;;;13.40;11.70;;;;;;5048329;28;34049;-77
2022/03/05 12:33:56;;;;;;;11.75;6.90;;;13.20;11.90;;;;;;5066023;28;34145;-77
2022/03/05 12:36:22;;;;;;;9.68;6.53;;;13.20;12.10;;;;;;5047416;28;35692;-77
2022/03/05 12:38:57;;;;;;;11.73;6.65;;;13.30;12.20;;;;;;5048094;28;34225;-77
2022/03/05 12:41:25;;;;;;;12.10;6.82;;;13.40;6.60;;;;;;5047055;28;34109;-77